Time;durP1;ratioP1;P1;durP2;ratioP2;P2;SDS_P1;SDS_P2;PMS_P1;PMS_P2;Temp;Humidity;BMP_temperature;BMP_pressure;BME280_temperature;BME280_humidity;BME280_pressure;Samples;Min_cycle;Max_cycle;Signal;HPM_P1;HPM_P2
2024/01/05 00:00:46;;;;;;;;;2.33;2.33;;;;;;;;5079775;28;45569;-79
2024/01/05 00:03:11;;;;;;;;;4.00;2.00;;;;;;;;5079658;28;45378;-79
2024/01/05 00:05:38;;;;;;;;;0.67;0.67;;;;;;;;5079906;28;45410;-79
2024/01/05 00:08:03;;;;;;;;;1.00;1.00;;;;;;;;5079726;28;45434;-78
2024/01/05 00:10:29;;;;;;;;;1.67;1.00;;;;;;;;5079708;28;46099;-78
2024/01/05 00:12:54;;;;;;;;;3.00;3.00;;;;;;;;5079733;28;45374;-79
2024/01/05 00:15:19;;;;;;;;;3.33;1.67;;;;;;;;5061549;28;45291;-79
2024/01/05 00:17:44;;;;;;;;;1.00;1.00;;;;;;;;5079309;28;45312;-79
2024/01/05 00:20:10;;;;;;;;;3.00;1.00;;;;;;;;5079294;28;46630;-79
2024/01/05 00:22:36;;;;;;;;;2.67;2.33;;;;;;;;5079476;28;45357;-79
2024/01/05 00:25:02;;;;;;;;;0.67;0.67;;;;;;;;5079660;28;45404;-79
2024/01/05 00:27:27;;;;;;;;;1.00;1.00;;;;;;;;5079280;28;45359;-79
2024/01/05 00:29:53;;;;;;;;;1.00;1.00;;;;;;;;5079284;28;45418;-79
2024/01/05 00:32:18;;;;;;;;;4.33;2.33;;;;;;;;5079318;28;45293;-79
2024/01/05 00:34:43;;;;;;;;;4.00;1.00;;;;;;;;5079253;28;45323;-79
2024/01/05 00:37:08;;;;;;;;;2.67;2.00;;;;;;;;5061133;28;45975;-84
2024/01/05 00:39:33;;;;;;;;;4.00;1.00;;;;;;;;5061054;28;47471;-78
2024/01/05 00:42:01;;;;;;;;;0.00;0.00;;;;;;;;5061010;28;45376;-78
2024/01/05 00:44:27;;;;;;;;;3.00;2.00;;;;;;;;5079237;28;45243;-78
2024/01/05 00:46:52;;;;;;;;;0.67;0.33;;;;;;;;5079319;28;45211;-78
2024/01/05 00:49:17;;;;;;;;;0.00;0.00;;;;;;;;5078864;28;46562;-78
2024/01/05 00:51:42;;;;;;;;;1.33;1.33;;;;;;;;5074882;28;45403;-79
2024/01/05 00:54:07;;;;;;;;;1.00;1.00;;;;;;;;5079329;28;45498;-78
2024/01/05 00:56:33;;;;;;;;;3.00;1.33;;;;;;;;5079355;27;45241;-79
2024/01/05 00:58:58;;;;;;;;;2.00;2.00;;;;;;;;5099574;27;45235;-78
2024/01/05 01:01:23;;;;;;;;;1.00;1.00;;;;;;;;5099434;27;45247;-77
2024/01/05 01:03:48;;;;;;;;;1.33;1.00;;;;;;;;5099008;27;45522;-77
2024/01/05 01:06:13;;;;;;;;;1.00;1.00;;;;;;;;5100847;27;45386;-77
2024/01/05 01:08:39;;;;;;;;;2.33;2.00;;;;;;;;5084555;27;48433;-78
2024/01/05 01:11:04;;;;;;;;;1.00;1.00;;;;;;;;5084395;27;45306;-78
2024/01/05 01:13:29;;;;;;;;;2.00;2.00;;;;;;;;5103239;27;45154;-78
2024/01/05 01:15:54;;;;;;;;;0.33;0.00;;;;;;;;5102902;27;45275;-79
2024/01/05 01:18:20;;;;;;;;;1.00;1.00;;;;;;;;5102409;27;45934;-79
2024/01/05 01:20:45;;;;;;;;;0.67;0.67;;;;;;;;5102831;27;45354;-79
2024/01/05 01:23:10;;;;;;;;;2.00;1.00;;;;;;;;5102813;27;45278;-78
2024/01/05 01:25:36;;;;;;;;;1.67;1.67;;;;;;;;5102846;27;45604;-79
2024/01/05 01:28:02;;;;;;;;;0.00;0.00;;;;;;;;5102497;27;45663;-78
2024/01/05 01:30:28;;;;;;;;;1.00;1.00;;;;;;;;5084112;27;45468;-77
2024/01/05 01:32:53;;;;;;;;;3.00;3.00;;;;;;;;5102560;27;45347;-79
2024/01/05 01:35:18;;;;;;;;;13.33;11.00;;;;;;;;5102467;27;45334;-78
2024/01/05 01:37:43;;;;;;;;;4.00;4.00;;;;;;;;5102587;27;45385;-78
2024/01/05 01:40:09;;;;;;;;;2.33;1.67;;;;;;;;5102495;27;45358;-79
2024/01/05 01:42:34;;;;;;;;;1.00;1.00;;;;;;;;5102621;27;45267;-78
2024/01/05 01:44:59;;;;;;;;;2.67;2.00;;;;;;;;5102255;27;45360;-82
2024/01/05 01:47:25;;;;;;;;;1.00;1.00;;;;;;;;5083933;27;47541;-79
2024/01/05 01:49:50;;;;;;;;;3.67;1.33;;;;;;;;5083597;27;45338;-78
2024/01/05 01:52:16;;;;;;;;;2.33;1.00;;;;;;;;5102216;27;45311;-78
2024/01/05 01:54:41;;;;;;;;;1.00;1.00;;;;;;;;5083995;27;46486;-81
2024/01/05 01:57:07;;;;;;;;;0.00;0.00;;;;;;;;5078002;28;47288;-80
2024/01/05 01:59:32;;;;;;;;;1.00;1.00;;;;;;;;5081789;28;45215;-79
2024/01/05 02:01:58;;;;;;;;;0.00;0.00;;;;;;;;5082066;28;45207;-80
2024/01/05 02:04:24;;;;;;;;;0.00;0.00;;;;;;;;5081508;28;45287;-79
2024/01/05 02:06:49;;;;;;;;;0.00;0.00;;;;;;;;5081584;28;45504;-80
2024/01/05 02:09:15;;;;;;;;;0.00;0.00;;;;;;;;5082066;28;45133;-80
2024/01/05 02:11:40;;;;;;;;;1.00;0.00;;;;;;;;5081882;28;45354;-79
2024/01/05 02:14:05;;;;;;;;;0.00;0.00;;;;;;;;5063431;28;46759;-78
2024/01/05 02:16:30;;;;;;;;;0.00;0.00;;;;;;;;5081367;28;45962;-79
2024/01/05 02:18:56;;;;;;;;;0.00;0.00;;;;;;;;5080484;28;45421;-78
2024/01/05 02:21:23;;;;;;;;;0.00;0.00;;;;;;;;5081612;28;45434;-78
2024/01/05 02:23:48;;;;;;;;;0.00;0.00;;;;;;;;5081258;28;45366;-79
2024/01/05 02:26:13;;;;;;;;;0.00;0.00;;;;;;;;5081240;28;45376;-79
2024/01/05 02:28:38;;;;;;;;;0.00;0.00;;;;;;;;5081197;28;45341;-79
2024/01/05 02:31:04;;;;;;;;;0.67;0.00;;;;;;;;5081574;28;45300;-78
2024/01/05 02:33:29;;;;;;;;;0.00;0.00;;;;;;;;5081006;28;45288;-77
2024/01/05 02:35:55;;;;;;;;;0.00;0.00;;;;;;;;5081192;28;45459;-77
2024/01/05 02:38:20;;;;;;;;;0.00;0.00;;;;;;;;5081501;28;45296;-78
2024/01/05 02:40:45;;;;;;;;;0.00;0.00;;;;;;;;5081182;28;45363;-77
2024/01/05 02:43:10;;;;;;;;;0.00;0.00;;;;;;;;5081133;28;45433;-78
2024/01/05 02:45:35;;;;;;;;;0.67;0.67;;;;;;;;5062702;28;48302;-78
2024/01/05 02:48:01;;;;;;;;;0.00;0.00;;;;;;;;5080804;28;45203;-79
2024/01/05 02:50:26;;;;;;;;;0.00;0.00;;;;;;;;5062426;28;45410;-78
2024/01/05 02:52:51;;;;;;;;;0.00;0.00;;;;;;;;5080855;28;45248;-78
2024/01/05 02:55:16;;;;;;;;;0.00;0.00;;;;;;;;5080781;28;46027;-78
2024/01/05 02:57:41;;;;;;;;;0.00;0.00;;;;;;;;5091576;27;45153;-79
2024/01/05 03:00:07;;;;;;;;;0.00;0.00;;;;;;;;5101516;27;45440;-78
2024/01/05 03:02:32;;;;;;;;;0.67;0.67;;;;;;;;5082891;27;46428;-80
2024/01/05 03:04:58;;;;;;;;;0.00;0.00;;;;;;;;5100832;27;45414;-78
2024/01/05 03:07:23;;;;;;;;;0.00;0.00;;;;;;;;5082886;27;45306;-78
2024/01/05 03:09:48;;;;;;;;;0.00;0.00;;;;;;;;5083093;27;45354;-78
2024/01/05 03:12:14;;;;;;;;;0.00;0.00;;;;;;;;5082759;27;47270;-78
2024/01/05 03:14:39;;;;;;;;;0.67;0.00;;;;;;;;5101070;27;46178;-77
2024/01/05 03:17:04;;;;;;;;;1.00;0.00;;;;;;;;5082680;27;45335;-78
2024/01/05 03:19:30;;;;;;;;;0.00;0.00;;;;;;;;5100644;27;45376;-78
2024/01/05 03:21:55;;;;;;;;;0.00;0.00;;;;;;;;5101069;27;45570;-79
2024/01/05 03:24:24;;;;;;;;;0.00;0.00;;;;;;;;5100812;27;45530;-78
2024/01/05 03:26:49;;;;;;;;;0.00;0.00;;;;;;;;5082575;27;45319;-77
2024/01/05 03:29:14;;;;;;;;;0.00;0.00;;;;;;;;5099996;27;45327;-79
2024/01/05 03:31:39;;;;;;;;;0.00;0.00;;;;;;;;5100553;27;45380;-78
2024/01/05 03:34:05;;;;;;;;;0.00;0.00;;;;;;;;5100445;27;45377;-77
2024/01/05 03:36:30;;;;;;;;;0.00;0.00;;;;;;;;5100764;27;45284;-78
2024/01/05 03:38:55;;;;;;;;;0.00;0.00;;;;;;;;5082585;27;45307;-77
2024/01/05 03:41:21;;;;;;;;;0.00;0.00;;;;;;;;5100473;27;45262;-77
2024/01/05 03:43:46;;;;;;;;;0.00;0.00;;;;;;;;5081898;27;47292;-78
2024/01/05 03:46:11;;;;;;;;;0.00;0.00;;;;;;;;5100634;27;45271;-79
2024/01/05 03:48:37;;;;;;;;;0.00;0.00;;;;;;;;5100186;27;45257;-78
2024/01/05 03:51:03;;;;;;;;;0.00;0.00;;;;;;;;5100165;27;45338;-78
2024/01/05 03:53:28;;;;;;;;;0.00;0.00;;;;;;;;5100342;27;45357;-79
2024/01/05 03:55:56;;;;;;;;;0.00;0.00;;;;;;;;5100429;27;45401;-77
2024/01/05 03:58:22;;;;;;;;;0.00;0.00;;;;;;;;5083842;27;45510;-78
2024/01/05 04:00:47;;;;;;;;;0.00;0.00;;;;;;;;5079898;28;45263;-79
2024/01/05 04:03:12;;;;;;;;;0.00;0.00;;;;;;;;5079688;28;45516;-77
2024/01/05 04:05:37;;;;;;;;;0.00;0.00;;;;;;;;5079774;28;45357;-79
2024/01/05 04:08:03;;;;;;;;;0.00;0.00;;;;;;;;5055553;28;45365;-78
2024/01/05 04:10:28;;;;;;;;;0.00;0.00;;;;;;;;5059637;28;45669;-78
2024/01/05 04:12:53;;;;;;;;;0.00;0.00;;;;;;;;5041243;28;46014;-78
2024/01/05 04:15:18;;;;;;;;;0.00;0.00;;;;;;;;5059581;28;45406;-78
2024/01/05 04:17:44;;;;;;;;;0.00;0.00;;;;;;;;5059205;28;45515;-78
2024/01/05 04:20:09;;;;;;;;;0.00;0.00;;;;;;;;5059485;28;45436;-80
2024/01/05 04:22:34;;;;;;;;;0.00;0.00;;;;;;;;5041179;28;47460;-78
2024/01/05 04:25:00;;;;;;;;;0.00;0.00;;;;;;;;5059239;28;45543;-78
2024/01/05 04:27:25;;;;;;;;;0.00;0.00;;;;;;;;5059393;28;45439;-78
2024/01/05 04:29:53;;;;;;;;;1.00;0.00;;;;;;;;5041163;28;47547;-78
2024/01/05 04:32:18;;;;;;;;;0.00;0.00;;;;;;;;5059232;28;45487;-78
2024/01/05 04:34:43;;;;;;;;;0.00;0.00;;;;;;;;5040746;28;45210;-78
2024/01/05 04:37:08;;;;;;;;;0.00;0.00;;;;;;;;5041235;28;45364;-78
2024/01/05 04:39:34;;;;;;;;;0.00;0.00;;;;;;;;5059248;28;45467;-80
2024/01/05 04:41:59;;;;;;;;;0.00;0.00;;;;;;;;5061420;28;46245;-77
2024/01/05 04:44:24;;;;;;;;;0.00;0.00;;;;;;;;5062701;28;45419;-79
2024/01/05 04:46:49;;;;;;;;;0.00;0.00;;;;;;;;5062822;28;45312;-78
2024/01/05 04:49:14;;;;;;;;;0.00;0.00;;;;;;;;5062214;28;45320;-78
2024/01/05 04:51:40;;;;;;;;;1.00;0.00;;;;;;;;5048711;28;47060;-78
2024/01/05 04:54:05;;;;;;;;;0.00;0.00;;;;;;;;5062518;28;45263;-78
2024/01/05 04:56:30;;;;;;;;;0.00;0.00;;;;;;;;5063466;27;45426;-78
2024/01/05 04:58:55;;;;;;;;;0.00;0.00;;;;;;;;5102909;27;45547;-78
2024/01/05 05:01:20;;;;;;;;;0.00;0.00;;;;;;;;5086847;27;45295;-78
2024/01/05 05:03:46;;;;;;;;;0.00;0.00;;;;;;;;5082195;28;45378;-78
2024/01/05 05:06:11;;;;;;;;;0.00;0.00;;;;;;;;5082675;28;45418;-78
2024/01/05 05:08:36;;;;;;;;;0.00;0.00;;;;;;;;5082324;28;45402;-78
2024/01/05 05:11:02;;;;;;;;;0.00;0.00;;;;;;;;5082597;28;45350;-78
2024/01/05 05:13:27;;;;;;;;;0.00;0.00;;;;;;;;5082533;28;45369;-78
2024/01/05 05:15:53;;;;;;;;;0.00;0.00;;;;;;;;5064303;28;45805;-77
2024/01/05 05:18:18;;;;;;;;;0.00;0.00;;;;;;;;5063768;28;46172;-77
2024/01/05 05:20:43;;;;;;;;;0.00;0.00;;;;;;;;5082361;28;45296;-78
2024/01/05 05:23:09;;;;;;;;;0.00;0.00;;;;;;;;5082341;28;45398;-78
2024/01/05 05:25:34;;;;;;;;;0.00;0.00;;;;;;;;5082421;28;45346;-78
2024/01/05 05:27:59;;;;;;;;;0.00;0.00;;;;;;;;5082094;28;45420;-78
2024/01/05 05:30:24;;;;;;;;;0.00;0.00;;;;;;;;5082304;28;46252;-78
2024/01/05 05:32:49;;;;;;;;;0.00;0.00;;;;;;;;5063361;28;45373;-78
2024/01/05 05:35:14;;;;;;;;;1.00;0.00;;;;;;;;5063932;28;45419;-78
2024/01/05 05:37:40;;;;;;;;;0.00;0.00;;;;;;;;5063791;28;47102;-78
2024/01/05 05:40:05;;;;;;;;;0.00;0.00;;;;;;;;5082101;28;45489;-78
2024/01/05 05:42:30;;;;;;;;;0.00;0.00;;;;;;;;5082088;28;45236;-79
2024/01/05 05:44:55;;;;;;;;;0.00;0.00;;;;;;;;5063734;28;45510;-78
2024/01/05 05:47:21;;;;;;;;;1.33;0.00;;;;;;;;5081922;28;45521;-78
2024/01/05 05:49:46;;;;;;;;;0.00;0.00;;;;;;;;5081552;28;45290;-78
2024/01/05 05:52:11;;;;;;;;;1.00;0.00;;;;;;;;5062867;28;45916;-77
2024/01/05 05:54:36;;;;;;;;;1.00;1.00;;;;;;;;5081437;28;45468;-78
2024/01/05 05:57:02;;;;;;;;;1.00;1.00;;;;;;;;5081310;28;45399;-77
2024/01/05 05:59:27;;;;;;;;;1.00;0.00;;;;;;;;5081657;28;46052;-78
2024/01/05 06:01:52;;;;;;;;;0.00;0.00;;;;;;;;5081184;28;45141;-77
2024/01/05 06:04:18;;;;;;;;;0.33;0.33;;;;;;;;5081427;28;45301;-79
2024/01/05 06:06:43;;;;;;;;;0.00;0.00;;;;;;;;5063462;28;47090;-78
2024/01/05 06:09:08;;;;;;;;;1.00;1.00;;;;;;;;5063418;28;47088;-78
2024/01/05 06:11:33;;;;;;;;;0.33;0.33;;;;;;;;5073744;28;45192;-78
2024/01/05 06:13:59;;;;;;;;;0.00;0.00;;;;;;;;5063740;28;45486;-78
2024/01/05 06:16:24;;;;;;;;;0.00;0.00;;;;;;;;5062898;28;45422;-78
2024/01/05 06:18:49;;;;;;;;;0.00;0.00;;;;;;;;5079774;28;46611;-80
2024/01/05 06:21:14;;;;;;;;;0.00;0.00;;;;;;;;5081590;28;45345;-79
2024/01/05 06:23:39;;;;;;;;;1.00;0.00;;;;;;;;5063185;28;45276;-79
2024/01/05 06:26:05;;;;;;;;;0.00;0.00;;;;;;;;5081264;28;45196;-78
2024/01/05 06:28:30;;;;;;;;;0.00;0.00;;;;;;;;5062763;28;46807;-78
2024/01/05 06:30:55;;;;;;;;;0.00;0.00;;;;;;;;5081443;28;45378;-77
2024/01/05 06:33:21;;;;;;;;;1.00;1.00;;;;;;;;5062787;28;45328;-77
2024/01/05 06:35:47;;;;;;;;;1.00;0.00;;;;;;;;5081191;28;45343;-77
2024/01/05 06:38:12;;;;;;;;;1.67;1.00;;;;;;;;5081172;28;45324;-77
2024/01/05 06:40:37;;;;;;;;;2.00;2.00;;;;;;;;5062626;28;46047;-77
2024/01/05 06:43:02;;;;;;;;;1.00;1.00;;;;;;;;5081286;28;45461;-76
2024/01/05 06:45:28;;;;;;;;;1.67;1.00;;;;;;;;5062540;28;47420;-76
2024/01/05 06:47:53;;;;;;;;;0.00;0.00;;;;;;;;5078306;28;45350;-76
2024/01/05 06:50:18;;;;;;;;;1.00;1.00;;;;;;;;5060485;28;45315;-77
2024/01/05 06:52:43;;;;;;;;;1.33;1.33;;;;;;;;5060668;28;45236;-77
2024/01/05 06:55:09;;;;;;;;;1.00;1.00;;;;;;;;5042100;28;46058;-77
2024/01/05 06:57:35;;;;;;;;;1.00;1.00;;;;;;;;5063110;27;48243;-78
2024/01/05 07:00:05;;;;;;;;;0.67;0.67;;;;;;;;5101189;27;45256;-77
2024/01/05 07:02:30;;;;;;;;;1.67;0.67;;;;;;;;5100971;27;45235;-77
2024/01/05 07:04:55;;;;;;;;;2.00;1.00;;;;;;;;5100652;27;45295;-76
2024/01/05 07:07:20;;;;;;;;;2.00;1.00;;;;;;;;5086829;27;46336;-76
2024/01/05 07:09:46;;;;;;;;;1.00;1.00;;;;;;;;5065491;28;45363;-75
2024/01/05 07:12:11;;;;;;;;;2.00;0.33;;;;;;;;5060442;28;45630;-76
2024/01/05 07:14:36;;;;;;;;;0.33;0.33;;;;;;;;5060262;28;45544;-76
2024/01/05 07:17:01;;;;;;;;;3.00;1.00;;;;;;;;5072963;28;45463;-76
2024/01/05 07:19:26;;;;;;;;;0.67;0.67;;;;;;;;5079894;28;45334;-76
2024/01/05 07:21:52;;;;;;;;;1.00;1.00;;;;;;;;5078945;28;45490;-76
2024/01/05 07:24:18;;;;;;;;;2.00;1.00;;;;;;;;5078613;28;45452;-76
2024/01/05 07:26:43;;;;;;;;;2.00;2.00;;;;;;;;5080263;28;45394;-77
2024/01/05 07:29:08;;;;;;;;;1.00;1.00;;;;;;;;5080111;27;45373;-77
2024/01/05 07:31:34;;;;;;;;;2.00;2.00;;;;;;;;5080467;28;45305;-77
2024/01/05 07:33:59;;;;;;;;;2.00;2.00;;;;;;;;5079474;27;45472;-76
2024/01/05 07:36:25;;;;;;;;;1.00;1.00;;;;;;;;5079894;28;46589;-77
2024/01/05 07:38:50;;;;;;;;;3.00;2.00;;;;;;;;5078385;27;45538;-76
2024/01/05 07:41:16;;;;;;;;;1.00;1.00;;;;;;;;5061585;28;45441;-76
2024/01/05 07:43:41;;;;;;;;;1.67;1.00;;;;;;;;5079702;27;45494;-76
2024/01/05 07:46:06;;;;;;;;;3.67;1.00;;;;;;;;5061563;28;47761;-77
2024/01/05 07:48:32;;;;;;;;;0.00;0.00;;;;;;;;5079583;27;45500;-79
2024/01/05 07:50:57;;;;;;;;;1.00;1.00;;;;;;;;5079979;28;45225;-78
2024/01/05 07:53:22;;;;;;;;;1.67;1.67;;;;;;;;5071301;27;45453;-77
2024/01/05 07:55:47;;;;;;;;;10.00;10.00;;;;;;;;5041276;28;47298;-77
2024/01/05 07:58:12;;;;;;;;;6.00;6.00;;;;;;;;5068819;27;45463;-76
2024/01/05 08:00:38;;;;;;;;;6.00;6.00;;;;;;;;5070809;28;46284;-76
2024/01/05 08:03:05;;;;;;;;;6.67;5.33;;;;;;;;5067391;27;45876;-77
2024/01/05 08:05:30;;;;;;;;;5.00;3.00;;;;;;;;5051967;28;47653;-77
2024/01/05 08:07:55;;;;;;;;;1.00;1.00;;;;;;;;5051783;28;45491;-76
2024/01/05 08:10:20;;;;;;;;;1.67;1.67;;;;;;;;5068240;28;46702;-77
2024/01/05 08:12:46;;;;;;;;;1.33;1.33;;;;;;;;5071185;27;46432;-76
2024/01/05 08:15:11;;;;;;;;;1.33;1.33;;;;;;;;5070258;28;46214;-76
2024/01/05 08:17:37;;;;;;;;;1.00;1.00;;;;;;;;5067452;27;45520;-76
2024/01/05 08:20:02;;;;;;;;;3.67;3.67;;;;;;;;5048507;28;45431;-77
2024/01/05 08:22:27;;;;;;;;;3.00;3.00;;;;;;;;5071981;27;45549;-77
2024/01/05 08:24:52;;;;;;;;;2.00;2.00;;;;;;;;5067368;27;45527;-79
2024/01/05 08:27:17;;;;;;;;;2.00;2.00;;;;;;;;5052035;28;45757;-78
2024/01/05 08:29:43;;;;;;;;;3.33;3.00;;;;;;;;5052572;28;45527;-77
2024/01/05 08:32:08;;;;;;;;;7.33;3.67;;;;;;;;5067563;28;45502;-77
2024/01/05 08:34:33;;;;;;;;;3.00;3.00;;;;;;;;5060148;28;48412;-76
2024/01/05 08:36:59;;;;;;;;;2.00;2.00;;;;;;;;5070382;28;45428;-77
2024/01/05 08:39:24;;;;;;;;;4.67;3.00;;;;;;;;5066176;28;45312;-78
2024/01/05 08:41:49;;;;;;;;;3.00;3.00;;;;;;;;5049198;28;46430;-78
2024/01/05 08:44:14;;;;;;;;;5.67;4.00;;;;;;;;5067975;28;46104;-77
2024/01/05 08:46:41;;;;;;;;;3.00;3.00;;;;;;;;5047800;28;45516;-76
2024/01/05 08:49:06;;;;;;;;;2.00;2.00;;;;;;;;5049936;28;45955;-77
2024/01/05 08:51:50;;;;;;;;;;;;;;;;;;;;;
2024/01/05 08:57:43;;;;;;;;;5.00;4.00;;;;;;;;5032251;28;45488;-76
2024/01/05 09:00:24;;;;;;;;;5.00;5.00;;;;;;;;5052601;28;45372;-76
2024/01/05 09:02:53;;;;;;;;;3.67;3.67;;;;;;;;5050670;28;45596;-76
2024/01/05 09:05:18;;;;;;;;;3.67;3.67;;;;;;;;5051485;28;48015;-77
2024/01/05 09:07:43;;;;;;;;;3.00;3.00;;;;;;;;5067641;28;45408;-77
2024/01/05 09:10:08;;;;;;;;;4.33;3.00;;;;;;;;5066243;28;45803;-76
2024/01/05 09:12:33;;;;;;;;;3.33;3.00;;;;;;;;5067131;28;45507;-76
2024/01/05 09:14:59;;;;;;;;;2.00;2.00;;;;;;;;5067409;28;46190;-77
2024/01/05 09:17:24;;;;;;;;;4.00;4.00;;;;;;;;5066763;28;45391;-76
2024/01/05 09:19:49;;;;;;;;;2.67;2.67;;;;;;;;5068717;28;46365;-76
2024/01/05 09:22:14;;;;;;;;;3.00;3.00;;;;;;;;5068169;28;45410;-78
2024/01/05 09:24:39;;;;;;;;;3.00;3.00;;;;;;;;5068168;28;46222;-79
2024/01/05 09:27:04;;;;;;;;;4.00;4.00;;;;;;;;5068560;28;45740;-79
2024/01/05 09:29:30;;;;;;;;;3.33;3.00;;;;;;;;5055100;28;45447;-78
2024/01/05 09:31:56;;;;;;;;;4.00;4.00;;;;;;;;5052653;28;46949;-79
2024/01/05 09:34:21;;;;;;;;;4.00;4.00;;;;;;;;5053680;28;47048;-77
2024/01/05 09:36:46;;;;;;;;;3.00;3.00;;;;;;;;5073086;28;45433;-79
2024/01/05 09:39:12;;;;;;;;;3.00;3.00;;;;;;;;5069784;28;46019;-76
2024/01/05 09:41:37;;;;;;;;;4.67;4.67;;;;;;;;5071924;28;45587;-76
2024/01/05 09:44:03;;;;;;;;;5.00;4.00;;;;;;;;5052959;28;49073;-76
2024/01/05 09:46:28;;;;;;;;;4.00;4.00;;;;;;;;5052502;28;46007;-76
2024/01/05 09:48:54;;;;;;;;;3.33;3.00;;;;;;;;5053599;28;45958;-77
2024/01/05 09:51:20;;;;;;;;;7.00;5.00;;;;;;;;5072213;28;46357;-76
2024/01/05 09:53:45;;;;;;;;;4.67;4.67;;;;;;;;5051624;28;48312;-76
2024/01/05 09:56:10;;;;;;;;;1.00;1.00;;;;;;;;5072431;28;46299;-77
2024/01/05 09:58:36;;;;;;;;;4.00;4.00;;;;;;;;5072880;27;45445;-77
2024/01/05 10:01:06;;;;;;;;;4.33;4.00;;;;;;;;5070364;28;46003;-77
2024/01/05 10:03:32;;;;;;;;;4.67;4.33;;;;;;;;5071466;28;45800;-76
2024/01/05 10:05:59;;;;;;;;;4.00;3.67;;;;;;;;5071888;28;45528;-76
2024/01/05 10:08:24;;;;;;;;;3.33;3.33;;;;;;;;5070883;28;46224;-77
2024/01/05 10:10:52;;;;;;;;;4.00;4.00;;;;;;;;5071093;28;45445;-77
2024/01/05 10:13:18;;;;;;;;;3.33;3.33;;;;;;;;5071327;28;46070;-77
2024/01/05 10:15:54;;;;;;;;;3.33;3.00;;;;;;;;5070797;28;45911;-78
2024/01/05 10:18:19;;;;;;;;;2.00;2.00;;;;;;;;5069921;28;46332;-78
2024/01/05 10:20:44;;;;;;;;;3.00;3.00;;;;;;;;5072099;28;46309;-76
2024/01/05 10:23:10;;;;;;;;;4.00;4.00;;;;;;;;5052153;28;48419;-77
2024/01/05 10:25:35;;;;;;;;;4.00;4.00;;;;;;;;5051479;28;45340;-77
2024/01/05 10:28:01;;;;;;;;;2.67;2.67;;;;;;;;5072039;28;46426;-76
2024/01/05 10:30:28;;;;;;;;;4.67;3.33;;;;;;;;5071558;28;45819;-77
2024/01/05 10:33:07;;;;;;;;;7.00;6.00;;;;;;;;5068608;28;45613;-77
2024/01/05 10:35:34;;;;;;;;;3.00;2.00;;;;;;;;5052799;28;46297;-77
2024/01/05 10:38:09;;;;;;;;;5.00;5.00;;;;;;;;5053503;28;45515;-76
2024/01/05 10:40:35;;;;;;;;;7.00;7.00;;;;;;;;5070723;28;45937;-77
2024/01/05 10:43:09;;;;;;;;;5.33;5.33;;;;;;;;5061937;28;47433;-75
2024/01/05 10:45:36;;;;;;;;;6.00;6.00;;;;;;;;5062460;28;45268;-77
2024/01/05 10:48:03;;;;;;;;;6.00;6.00;;;;;;;;5080756;28;45346;-76
2024/01/05 10:50:29;;;;;;;;;4.00;4.00;;;;;;;;5079521;28;45320;-78
2024/01/05 10:52:54;;;;;;;;;3.67;3.67;;;;;;;;5079427;28;45487;-76
2024/01/05 10:55:19;;;;;;;;;6.67;6.67;;;;;;;;5079393;28;45382;-76
2024/01/05 10:57:45;;;;;;;;;12.00;12.00;;;;;;;;5072346;27;45520;-77
2024/01/05 11:00:12;;;;;;;;;6.33;6.33;;;;;;;;5082625;27;46046;-77
2024/01/05 11:02:39;;;;;;;;;4.00;3.00;;;;;;;;5100981;27;46438;-77
2024/01/05 11:05:08;;;;;;;;;8.33;7.00;;;;;;;;5101230;27;45333;-76
2024/01/05 11:07:33;;;;;;;;;10.67;10.67;;;;;;;;5101284;27;45506;-77
2024/01/05 11:10:05;;;;;;;;;6.67;6.33;;;;;;;;5082684;27;45427;-76
2024/01/05 11:12:30;;;;;;;;;9.67;9.67;;;;;;;;5082641;27;47347;-77
2024/01/05 11:15:14;;;;;;;;;15.33;13.67;;;;;;;;5100950;27;45411;-76
2024/01/05 11:17:49;;;;;;;;;6.67;6.67;;;;;;;;5100453;27;45242;-76
2024/01/05 11:20:33;;;;;;;;;8.00;7.00;;;;;;;;5082363;27;47181;-76
2024/01/05 11:22:58;;;;;;;;;4.00;4.00;;;;;;;;5101184;27;45354;-76
2024/01/05 11:25:24;;;;;;;;;4.67;3.00;;;;;;;;5082416;27;45272;-77
2024/01/05 11:27:49;;;;;;;;;5.00;4.33;;;;;;;;5100779;27;45374;-76
2024/01/05 11:30:34;;;;;;;;;4.33;4.33;;;;;;;;5100990;27;45430;-77
2024/01/05 11:32:59;;;;;;;;;5.00;3.33;;;;;;;;5082293;27;47210;-75
2024/01/05 11:35:24;;;;;;;;;12.67;10.67;;;;;;;;5101041;27;45366;-78
2024/01/05 11:37:50;;;;;;;;;5.33;5.33;;;;;;;;5083831;27;45224;-77
2024/01/05 11:40:32;;;;;;;;;4.33;4.33;;;;;;;;5105732;27;45244;-80
2024/01/05 11:42:58;;;;;;;;;3.00;3.00;;;;;;;;5081115;27;46291;-77
2024/01/05 11:45:42;;;;;;;;;3.00;3.00;;;;;;;;5059784;28;45168;-77
2024/01/05 11:48:07;;;;;;;;;5.00;5.00;;;;;;;;5059644;28;45296;-76
2024/01/05 11:50:33;;;;;;;;;9.00;9.00;;;;;;;;5058406;28;45211;-77
2024/01/05 11:53:15;;;;;;;;;7.00;7.00;;;;;;;;5059706;28;46195;-76
2024/01/05 11:55:46;;;;;;;;;5.00;4.67;;;;;;;;5044105;28;45360;-78
2024/01/05 11:58:15;;;;;;;;;3.33;2.67;;;;;;;;5054146;28;45314;-78
2024/01/05 12:00:42;;;;;;;;;5.00;5.00;;;;;;;;5048113;28;46237;-78
2024/01/05 12:03:08;;;;;;;;;2.00;2.00;;;;;;;;5059040;28;46377;-77
2024/01/05 12:05:33;;;;;;;;;3.33;3.33;;;;;;;;5066954;28;45494;-77
2024/01/05 12:08:00;;;;;;;;;4.00;3.00;;;;;;;;5074230;28;45231;-76
2024/01/05 12:10:27;;;;;;;;;1.33;1.33;;;;;;;;5080301;28;45257;-76
2024/01/05 12:12:52;;;;;;;;;4.00;4.00;;;;;;;;5079685;27;45595;-76
2024/01/05 12:15:17;;;;;;;;;3.00;3.00;;;;;;;;5078612;28;45470;-78
2024/01/05 12:17:43;;;;;;;;;3.00;3.00;;;;;;;;5078887;27;45529;-77
2024/01/05 12:20:10;;;;;;;;;6.67;6.00;;;;;;;;5078603;28;45542;-77
2024/01/05 12:22:36;;;;;;;;;9.67;9.00;;;;;;;;5078800;27;47324;-77
2024/01/05 12:25:06;;;;;;;;;6.00;6.00;;;;;;;;5095462;27;45385;-76
2024/01/05 12:27:35;;;;;;;;;5.00;4.00;;;;;;;;5047424;28;45489;-76
2024/01/05 12:30:01;;;;;;;;;6.33;5.67;;;;;;;;5043640;28;46146;-76
2024/01/05 12:32:28;;;;;;;;;6.33;6.00;;;;;;;;5065666;28;45408;-77
2024/01/05 12:34:53;;;;;;;;;3.67;3.67;;;;;;;;5065550;28;45619;-76
2024/01/05 12:37:18;;;;;;;;;7.67;5.33;;;;;;;;5073657;28;45576;-77
2024/01/05 12:39:44;;;;;;;;;4.00;2.67;;;;;;;;5058832;28;47580;-76
2024/01/05 12:42:09;;;;;;;;;5.00;4.00;;;;;;;;5077461;28;46215;-77
2024/01/05 12:44:35;;;;;;;;;6.00;6.00;;;;;;;;5078600;28;45590;-76
2024/01/05 12:47:00;;;;;;;;;4.00;2.33;;;;;;;;5060049;28;45570;-76
2024/01/05 12:49:27;;;;;;;;;9.00;7.00;;;;;;;;5078822;28;45505;-76
2024/01/05 12:51:52;;;;;;;;;3.33;3.33;;;;;;;;5078831;28;45455;-76
2024/01/05 12:54:18;;;;;;;;;6.00;6.00;;;;;;;;5061682;28;45371;-77
2024/01/05 12:56:50;;;;;;;;;7.00;6.67;;;;;;;;5046331;27;45506;-77
2024/01/05 12:59:20;;;;;;;;;9.67;7.33;;;;;;;;5080959;27;47229;-76
2024/01/05 13:01:45;;;;;;;;;4.00;4.00;;;;;;;;5066814;28;48095;-76
2024/01/05 13:04:10;;;;;;;;;1.67;1.67;;;;;;;;5063835;28;45343;-78
2024/01/05 13:06:37;;;;;;;;;2.00;1.67;;;;;;;;5064055;28;45545;-77
2024/01/05 13:09:02;;;;;;;;;1.67;1.00;;;;;;;;5081137;28;45574;-76
2024/01/05 13:11:27;;;;;;;;;1.00;1.00;;;;;;;;5082115;28;45276;-77
2024/01/05 13:13:53;;;;;;;;;2.00;1.00;;;;;;;;5082469;28;45335;-76
2024/01/05 13:16:18;;;;;;;;;4.00;2.00;;;;;;;;5082962;28;45269;-76
2024/01/05 13:18:44;;;;;;;;;2.67;2.00;;;;;;;;5085724;28;45398;-78
2024/01/05 13:21:09;;;;;;;;;3.00;3.00;;;;;;;;5082167;28;45266;-76
2024/01/05 13:23:35;;;;;;;;;6.00;5.00;;;;;;;;5068466;28;45471;-76
2024/01/05 13:26:01;;;;;;;;;3.00;3.00;;;;;;;;5051317;28;45472;-76
2024/01/05 13:28:26;;;;;;;;;3.00;2.00;;;;;;;;5071974;28;45438;-76
2024/01/05 13:30:52;;;;;;;;;5.00;5.00;;;;;;;;5069969;28;46089;-76
2024/01/05 13:33:17;;;;;;;;;6.00;3.67;;;;;;;;5071041;28;45403;-77
2024/01/05 13:35:42;;;;;;;;;8.67;6.67;;;;;;;;5075799;28;45547;-76
2024/01/05 13:38:07;;;;;;;;;3.00;3.00;;;;;;;;5063377;28;45395;-77
2024/01/05 13:40:32;;;;;;;;;4.00;2.00;;;;;;;;5080884;28;45424;-77
2024/01/05 13:42:58;;;;;;;;;5.67;5.00;;;;;;;;5074645;28;45378;-76
2024/01/05 13:45:23;;;;;;;;;5.33;4.67;;;;;;;;5071304;28;45327;-77
2024/01/05 13:47:48;;;;;;;;;6.00;5.33;;;;;;;;5051676;28;46524;-77
2024/01/05 13:50:13;;;;;;;;;11.00;9.00;;;;;;;;5052466;28;47502;-76
2024/01/05 13:52:39;;;;;;;;;8.00;6.67;;;;;;;;5071066;28;45330;-77
2024/01/05 13:55:04;;;;;;;;;6.33;5.00;;;;;;;;5068505;28;45449;-76
2024/01/05 13:57:30;;;;;;;;;7.67;5.67;;;;;;;;5073796;27;45398;-76
2024/01/05 13:59:55;;;;;;;;;4.67;4.67;;;;;;;;5070415;28;45400;-77
2024/01/05 14:02:20;;;;;;;;;8.00;8.00;;;;;;;;5069564;28;45441;-77
2024/01/05 14:04:47;;;;;;;;;4.67;4.67;;;;;;;;5070870;28;45378;-76
2024/01/05 14:07:12;;;;;;;;;4.67;4.67;;;;;;;;5070143;28;45572;-76
2024/01/05 14:09:37;;;;;;;;;8.00;6.00;;;;;;;;5069236;28;45562;-77
2024/01/05 14:12:02;;;;;;;;;8.67;7.00;;;;;;;;5070888;28;45266;-76
2024/01/05 14:14:28;;;;;;;;;9.33;6.00;;;;;;;;5075011;28;45283;-77
2024/01/05 14:16:53;;;;;;;;;6.00;6.00;;;;;;;;5070888;28;45212;-77
2024/01/05 14:19:18;;;;;;;;;5.67;4.00;;;;;;;;5068600;28;45331;-77
2024/01/05 14:21:43;;;;;;;;;3.33;3.33;;;;;;;;5070027;28;45232;-76
2024/01/05 14:24:09;;;;;;;;;7.00;5.67;;;;;;;;5050858;28;45396;-77
2024/01/05 14:26:34;;;;;;;;;13.00;10.00;;;;;;;;5071054;28;45455;-75
2024/01/05 14:28:59;;;;;;;;;7.00;5.00;;;;;;;;5068971;28;45448;-77
2024/01/05 14:31:33;;;;;;;;;9.00;6.67;;;;;;;;5052328;28;45538;-77
2024/01/05 14:33:58;;;;;;;;;3.00;3.00;;;;;;;;5070845;28;45339;-77
2024/01/05 14:36:24;;;;;;;;;8.33;5.67;;;;;;;;5069330;28;45287;-77
2024/01/05 14:38:52;;;;;;;;;3.33;3.33;;;;;;;;5068667;28;45323;-79